YMHB Airport Information

Runway Information
Runway 12 Length 7385 ft width 148 ft
Elevation 12 ft Threshold 0 ft Heading 135
Runway 30 Length 7385 ft Width 148 ft
Elevation 13 ft Threshold 0 ft Heading 315
Airport Frequencies
Type ATIS Name ATIS Frequency 112.7 MHZ
Type CTAF Name CTAF Frequency 118.1 MHZ
Type FSS Name MELBOURNE Frequency 125.55 MHZ
Type TWR Name TWR Frequency 118.1 MHZ
Airport Navaids
Type VOR-DME Name Hobart Frequency 112700 KHZ
Type NDB Name Hobart Frequency 362 KHZ
Type NDB Name Tea Tree Frequency 374 KHZ
Airport Weather Information & NOTAM
ADDS - METARS form results

(0856 UTC 24 April 2018)
 
METAR text: YMHB 240830Z 34006KT CAVOK 19/11 Q1008
Conditions at: YMHB (HOBART/TASMANIA , AU) observed 0830 UTC 24 April 2018
Temperature: 19.0°C (66°F)
Dewpoint: 11.0°C (52°F) [RH = 60%]
Pressure (altimeter): 29.76 inches Hg (1008.0 mb)
Winds: from the NNW (340 degrees) at 7 MPH (6 knots; 3.1 m/s)
Visibility: 6 or more miles (10+ km)
Ceiling: ceiling and visibility are OK
Clouds: unknown
Weather: no significant weather observed at this time

METAR text: YMHB 240800Z 29005KT 270V330 CAVOK 19/11 Q1008 RF00.0/000.0 SCT079 SCT120 BKN260
Conditions at: YMHB (HOBART/TASMANIA , AU) observed 0800 UTC 24 April 2018
Temperature: 19.0°C (66°F)
Dewpoint: 11.0°C (52°F) [RH = 60%]
Pressure (altimeter): 29.76 inches Hg (1008.0 mb)
Winds: from the WNW (290 degrees) at 6 MPH (5 knots; 2.6 m/s)
Visibility: 6 or more miles (10+ km)
Ceiling: 26000 feet AGL
Clouds: scattered clouds at 7900 feet AGL
scattered clouds at 12000 feet AGL
broken clouds at 26000 feet AGL
Weather: no significant weather observed at this time